Time;durP1;ratioP1;P1;durP2;ratioP2;P2;SDS_P1;SDS_P2;PMS_P1;PMS_P2;Temp;Humidity;BMP_temperature;BMP_pressure;BME280_temperature;BME280_humidity;BME280_pressure;Samples;Min_cycle;Max_cycle;Signal;HPM_P1;HPM_P2
2022/03/20 00:01:02;;;;;;;6.55;2.78;;;8.90;67.40;;;;;;6130687;23;20100;-86
2022/03/20 00:03:28;;;;;;;8.23;3.63;;;8.90;67.60;;;;;;6130819;23;20416;-86
2022/03/20 00:05:54;;;;;;;8.07;3.20;;;8.80;67.50;;;;;;6156869;23;20001;-86
2022/03/20 00:08:20;;;;;;;7.65;3.53;;;8.80;68.00;;;;;;6157204;23;20021;-86
2022/03/20 00:10:48;;;;;;;8.23;3.72;;;8.70;68.00;;;;;;6131618;23;20092;-85
2022/03/20 00:13:16;;;;;;;7.45;3.85;;;8.80;68.40;;;;;;6136892;23;20001;-86
2022/03/20 00:15:44;;;;;;;8.13;3.85;;;8.70;68.40;;;;;;6137297;23;19998;-85
2022/03/20 00:18:11;;;;;;;7.97;3.72;;;8.70;68.50;;;;;;6131517;23;20029;-86
2022/03/20 00:20:45;;;;;;;10.55;3.95;;;8.70;68.60;;;;;;6131920;23;20001;-85
2022/03/20 00:23:12;;;;;;;8.25;4.10;;;8.70;68.80;;;;;;6111486;23;20006;-86
2022/03/20 00:25:42;;;;;;;9.73;3.78;;;8.70;69.10;;;;;;6107035;23;20013;-86
2022/03/20 00:28:09;;;;;;;9.05;3.95;;;8.60;69.00;;;;;;6130521;23;20001;-86
2022/03/20 00:30:36;;;;;;;9.13;3.97;;;8.60;69.00;;;;;;6106414;23;20102;-86
2022/03/20 00:33:01;;;;;;;10.88;4.15;;;8.60;69.10;;;;;;6105921;23;20017;-86
2022/03/20 00:35:29;;;;;;;7.95;3.90;;;8.60;69.00;;;;;;6106304;23;20336;-86
2022/03/20 00:37:54;;;;;;;7.85;4.03;;;8.50;69.10;;;;;;6130383;23;20147;-87
2022/03/20 00:40:20;;;;;;;8.40;4.53;;;8.50;69.30;;;;;;6106026;23;20025;-86
2022/03/20 00:42:46;;;;;;;9.10;4.43;;;8.50;69.40;;;;;;6130634;23;20010;-85
2022/03/20 00:45:12;;;;;;;8.45;4.65;;;8.50;69.50;;;;;;6105959;23;20016;-85
2022/03/20 00:47:37;;;;;;;11.27;4.70;;;8.40;69.40;;;;;;6105809;23;20013;-86
2022/03/20 00:50:04;;;;;;;11.57;5.05;;;8.40;69.30;;;;;;6130024;23;20001;-86
2022/03/20 00:52:32;;;;;;;16.05;5.32;;;8.40;69.30;;;;;;6129966;23;20048;-86
2022/03/20 00:54:58;;;;;;;10.55;6.30;;;8.30;69.50;;;;;;6106154;23;20010;-86
2022/03/20 00:57:23;;;;;;;11.25;6.00;;;8.40;69.80;;;;;;6156886;23;20032;-86
2022/03/20 00:59:49;;;;;;;10.70;6.72;;;8.30;70.00;;;;;;6130340;23;20002;-85
2022/03/20 01:02:15;;;;;;;11.00;6.82;;;8.30;70.00;;;;;;6129974;23;20060;-86
2022/03/20 01:04:41;;;;;;;11.60;6.72;;;8.20;69.90;;;;;;6130375;23;20001;-86
2022/03/20 01:07:07;;;;;;;14.45;7.28;;;8.20;70.10;;;;;;6130132;23;20006;-86
2022/03/20 01:09:33;;;;;;;11.52;7.63;;;8.20;69.80;;;;;;6139249;23;20021;-86
2022/03/20 01:11:59;;;;;;;12.68;7.63;;;8.20;69.80;;;;;;6159451;23;20028;-86
2022/03/20 01:14:26;;;;;;;12.68;7.85;;;8.20;69.80;;;;;;6110827;23;20423;-86
2022/03/20 01:16:54;;;;;;;13.65;7.97;;;8.10;69.70;;;;;;6110839;23;20013;-83
2022/03/20 01:19:23;;;;;;;13.95;8.50;;;8.10;70.00;;;;;;6135117;23;20013;-85
2022/03/20 01:21:49;;;;;;;13.70;8.35;;;8.10;70.10;;;;;;6135919;23;20013;-84
2022/03/20 01:24:15;;;;;;;15.50;8.57;;;8.10;70.10;;;;;;6110037;23;20008;-85
2022/03/20 01:26:41;;;;;;;17.95;9.52;;;8.10;70.40;;;;;;6134981;23;20009;-84
2022/03/20 01:29:07;;;;;;;15.98;9.85;;;8.00;70.40;;;;;;6134742;23;20339;-85
2022/03/20 01:31:34;;;;;;;14.40;8.85;;;8.00;70.40;;;;;;6135270;23;20009;-84
2022/03/20 01:34:00;;;;;;;17.55;9.05;;;8.00;70.30;;;;;;6159402;23;20008;-85
2022/03/20 01:36:26;;;;;;;12.57;7.50;;;8.00;70.30;;;;;;6134796;23;20029;-85
2022/03/20 01:38:52;;;;;;;15.05;8.77;;;8.00;70.40;;;;;;6185451;23;20431;-84
2022/03/20 01:41:18;;;;;;;14.43;8.48;;;8.00;71.20;;;;;;6185682;23;20013;-84
2022/03/20 01:43:56;;;;;;;13.68;8.20;;;7.90;70.40;;;;;;6198263;23;20028;-85
2022/03/20 01:46:22;;;;;;;14.68;7.95;;;7.90;70.80;;;;;;6159724;23;19997;-85
2022/03/20 01:48:49;;;;;;;17.25;8.65;;;7.90;71.10;;;;;;6185889;23;20273;-84
2022/03/20 01:51:15;;;;;;;12.75;7.47;;;7.80;71.50;;;;;;6185922;23;20020;-84
2022/03/20 01:53:42;;;;;;;16.92;9.43;;;7.80;71.50;;;;;;6186014;23;19997;-85
2022/03/20 01:56:08;;;;;;;13.60;6.82;;;7.80;72.10;;;;;;6110502;23;20005;-85
2022/03/20 01:58:34;;;;;;;11.45;7.18;;;7.80;71.90;;;;;;6159036;23;20056;-84
2022/03/20 02:01:02;;;;;;;14.45;6.90;;;7.80;72.00;;;;;;6159630;23;20020;-85
2022/03/20 02:03:29;;;;;;;12.23;7.07;;;7.70;72.30;;;;;;6163721;23;20004;-85
2022/03/20 02:05:55;;;;;;;12.00;6.82;;;7.70;72.40;;;;;;6167065;23;20001;-84
2022/03/20 02:08:25;;;;;;;11.95;6.10;;;7.60;72.70;;;;;;6167182;23;20128;-85
2022/03/20 02:10:54;;;;;;;10.35;5.88;;;7.60;73.20;;;;;;6134051;23;20070;-85
2022/03/20 02:13:22;;;;;;;12.32;6.20;;;7.60;73.20;;;;;;6183488;23;20035;-85
2022/03/20 02:15:49;;;;;;;12.60;5.47;;;7.50;73.50;;;;;;6136776;23;19998;-85
2022/03/20 02:18:15;;;;;;;11.85;6.15;;;7.50;73.90;;;;;;6130648;23;20048;-85
2022/03/20 02:20:47;;;;;;;12.60;5.97;;;7.40;74.20;;;;;;6179235;23;20029;-84
2022/03/20 02:23:17;;;;;;;11.38;5.60;;;7.50;74.70;;;;;;6129200;23;20427;-85
2022/03/20 02:25:48;;;;;;;9.07;5.15;;;7.40;75.00;;;;;;6154055;23;20104;-84
2022/03/20 02:28:14;;;;;;;10.55;5.57;;;7.40;75.40;;;;;;6155434;23;20380;-85
2022/03/20 02:30:40;;;;;;;11.82;5.65;;;7.40;75.40;;;;;;6154066;23;20025;-85
2022/03/20 02:33:06;;;;;;;9.70;5.05;;;7.30;75.70;;;;;;6178825;23;20006;-84
2022/03/20 02:35:33;;;;;;;12.95;6.05;;;7.30;76.20;;;;;;6153829;23;20036;-84
2022/03/20 02:37:58;;;;;;;13.27;6.18;;;7.20;76.30;;;;;;6129442;23;20044;-84
2022/03/20 02:40:24;;;;;;;10.15;5.38;;;7.20;76.40;;;;;;6153698;23;20014;-84
2022/03/20 02:42:54;;;;;;;8.90;5.15;;;7.20;76.80;;;;;;6128946;23;20041;-85
2022/03/20 02:45:30;;;;;;;11.48;5.57;;;7.20;76.80;;;;;;6129077;23;19997;-84
2022/03/20 02:47:57;;;;;;;13.00;5.93;;;7.20;77.10;;;;;;6129425;23;20320;-84
2022/03/20 02:50:29;;;;;;;10.48;5.57;;;7.20;77.10;;;;;;6129235;23;20040;-84
2022/03/20 02:53:03;;;;;;;14.07;5.95;;;7.10;77.20;;;;;;6131440;23;20032;-84
2022/03/20 02:55:31;;;;;;;13.57;6.00;;;7.10;77.50;;;;;;6131341;23;20827;-84
2022/03/20 02:58:01;;;;;;;13.02;6.78;;;7.10;77.80;;;;;;6131138;23;20029;-85
2022/03/20 03:00:28;;;;;;;9.68;5.57;;;7.10;77.90;;;;;;6130935;23;20331;-83
2022/03/20 03:02:56;;;;;;;11.48;5.78;;;7.00;78.40;;;;;;6130984;23;20009;-85
2022/03/20 03:05:24;;;;;;;10.10;5.65;;;7.00;78.40;;;;;;6131164;23;20031;-84
2022/03/20 03:10:57;;;;;;;11.57;6.18;;;7.00;78.60;;;;;;6156954;23;20032;-85
2022/03/20 03:13:28;;;;;;;13.00;6.57;;;7.00;78.50;;;;;;6157527;23;20467;-85
2022/03/20 03:15:55;;;;;;;12.23;6.60;;;7.00;78.50;;;;;;6131186;23;20005;-85
2022/03/20 03:18:22;;;;;;;14.18;6.72;;;6.90;78.70;;;;;;6131108;23;20440;-85
2022/03/20 03:20:48;;;;;;;12.25;6.30;;;6.90;78.80;;;;;;6106908;23;20009;-84
2022/03/20 03:23:14;;;;;;;16.27;7.20;;;6.90;79.00;;;;;;6131483;23;20085;-84
2022/03/20 03:25:40;;;;;;;13.95;6.32;;;6.90;79.00;;;;;;6131415;23;20133;-84
2022/03/20 03:28:07;;;;;;;14.02;6.93;;;6.90;79.10;;;;;;6106732;23;20002;-84
2022/03/20 03:30:35;;;;;;;11.77;7.13;;;6.80;78.90;;;;;;6131014;23;19997;-85
2022/03/20 03:33:00;;;;;;;13.43;6.95;;;6.80;79.00;;;;;;6131020;23;20412;-85
2022/03/20 03:35:41;;;;;;;16.73;7.03;;;6.80;79.20;;;;;;6131292;23;20097;-85
2022/03/20 03:38:18;;;;;;;13.93;7.00;;;6.80;79.30;;;;;;6137484;23;20029;-85
2022/03/20 03:40:46;;;;;;;13.07;7.40;;;6.80;79.50;;;;;;6138445;23;20049;-85
2022/03/20 03:43:14;;;;;;;12.00;6.88;;;6.70;79.30;;;;;;6161733;23;20004;-84
2022/03/20 03:45:41;;;;;;;14.40;7.45;;;6.70;79.40;;;;;;6085397;23;20076;-84
2022/03/20 03:48:11;;;;;;;15.20;7.97;;;6.70;79.60;;;;;;6133692;23;20006;-84
2022/03/20 03:50:38;;;;;;;15.20;7.50;;;6.70;79.70;;;;;;6112064;23;20001;-85
2022/03/20 03:53:05;;;;;;;15.30;7.68;;;6.70;79.60;;;;;;6132278;23;20002;-85
2022/03/20 03:55:32;;;;;;;15.38;8.27;;;6.70;79.60;;;;;;6106820;23;20008;-84
2022/03/20 03:57:58;;;;;;;18.15;8.60;;;6.60;79.70;;;;;;6130676;23;20332;-85
2022/03/20 04:00:26;;;;;;;17.40;7.90;;;6.60;79.80;;;;;;6130713;23;20459;-85
2022/03/20 04:02:52;;;;;;;13.57;8.15;;;6.60;80.00;;;;;;6164032;23;20017;-85
2022/03/20 04:05:17;;;;;;;13.38;8.63;;;6.60;80.10;;;;;;6109315;23;20070;-86
2022/03/20 04:07:47;;;;;;;16.77;8.65;;;6.50;80.20;;;;;;6131651;23;20006;-84
2022/03/20 04:10:14;;;;;;;17.20;9.43;;;6.60;80.10;;;;;;6106113;23;20024;-84
2022/03/20 04:12:46;;;;;;;17.48;8.98;;;6.50;79.70;;;;;;6106318;23;20009;-84
2022/03/20 04:15:13;;;;;;;15.70;8.18;;;6.60;79.80;;;;;;6157175;23;20001;-85
2022/03/20 04:17:39;;;;;;;15.57;8.73;;;6.60;79.80;;;;;;6130388;23;20436;-85
2022/03/20 04:20:06;;;;;;;13.25;8.43;;;6.50;79.70;;;;;;6130730;23;20423;-84
2022/03/20 04:22:35;;;;;;;14.10;8.18;;;6.50;79.90;;;;;;6130127;23;20016;-84
2022/03/20 04:25:01;;;;;;;14.00;8.55;;;6.50;80.00;;;;;;6156445;23;20028;-85
2022/03/20 04:27:28;;;;;;;18.10;9.40;;;6.50;80.10;;;;;;6130242;23;20447;-86
2022/03/20 04:29:54;;;;;;;15.75;9.13;;;6.50;80.30;;;;;;6106376;23;20012;-85
2022/03/20 04:32:20;;;;;;;16.48;9.23;;;6.50;80.20;;;;;;6105797;23;20336;-85
2022/03/20 04:34:47;;;;;;;18.00;9.32;;;6.50;80.10;;;;;;6104995;23;20046;-85
2022/03/20 04:37:13;;;;;;;15.68;9.45;;;6.50;80.10;;;;;;6130568;23;20006;-85
2022/03/20 04:39:39;;;;;;;16.92;8.98;;;6.50;80.20;;;;;;6106057;23;20099;-85
2022/03/20 04:42:08;;;;;;;17.20;9.50;;;6.50;80.00;;;;;;6156083;23;20009;-85
2022/03/20 04:44:33;;;;;;;16.63;9.10;;;6.50;79.90;;;;;;6129963;23;20013;-85
2022/03/20 04:46:59;;;;;;;16.25;9.65;;;6.50;79.60;;;;;;6106231;23;20309;-85
2022/03/20 05:00:22;;;;;;;16.35;9.85;;;6.40;79.70;;;;;;6134003;23;20028;-87
2022/03/20 05:02:48;;;;;;;18.50;10.23;;;6.40;79.70;;;;;;6105524;23;20013;-85
2022/03/20 05:05:18;;;;;;;16.35;10.02;;;6.40;79.80;;;;;;6130165;23;20416;-84
2022/03/20 05:07:43;;;;;;;16.77;10.60;;;6.50;79.80;;;;;;6129900;23;20018;-85
2022/03/20 05:15:39;;;;;;;19.42;10.13;;;6.40;79.80;;;;;;6156017;23;20021;-85
2022/03/20 05:18:07;;;;;;;21.02;11.23;;;6.40;79.70;;;;;;6156078;23;20029;-85
2022/03/20 05:20:32;;;;;;;19.52;10.55;;;6.50;79.30;;;;;;6129992;23;20420;-85
2022/03/20 05:22:59;;;;;;;19.50;10.35;;;6.40;79.10;;;;;;6105806;23;20016;-84
2022/03/20 05:25:28;;;;;;;25.33;10.65;;;6.50;79.10;;;;;;6105865;23;20006;-86
2022/03/20 05:27:54;;;;;;;14.02;9.57;;;6.40;78.90;;;;;;6130019;23;20363;-85
2022/03/20 05:30:20;;;;;;;15.95;9.68;;;6.40;78.90;;;;;;6156466;23;20005;-84
2022/03/20 05:32:47;;;;;;;15.90;10.10;;;6.40;79.00;;;;;;6129791;23;20017;-84
2022/03/20 05:35:15;;;;;;;18.58;11.02;;;6.40;78.50;;;;;;6106118;23;20017;-85
2022/03/20 05:37:42;;;;;;;16.40;10.73;;;6.40;78.60;;;;;;6130076;23;20005;-84
2022/03/20 05:40:08;;;;;;;16.60;10.57;;;6.40;78.20;;;;;;6156233;23;20002;-85
2022/03/20 05:42:35;;;;;;;17.17;10.68;;;6.40;78.40;;;;;;6108466;23;20014;-85
2022/03/20 05:45:02;;;;;;;17.27;9.65;;;6.40;78.30;;;;;;6137030;23;20400;-85
2022/03/20 05:47:32;;;;;;;16.92;10.40;;;6.40;78.30;;;;;;6113199;23;20026;-86
2022/03/20 05:50:00;;;;;;;17.15;9.60;;;6.40;78.40;;;;;;6136168;23;20013;-85
2022/03/20 05:52:27;;;;;;;20.33;11.57;;;6.40;78.00;;;;;;6112474;23;20096;-85
2022/03/20 05:54:52;;;;;;;23.27;12.63;;;6.40;78.10;;;;;;6113576;23;20012;-85
2022/03/20 06:00:04;;;;;;;18.45;11.18;;;6.40;78.00;;;;;;6134471;23;20017;-84
2022/03/20 06:02:30;;;;;;;19.67;10.55;;;6.40;77.80;;;;;;6105325;23;20028;-86
2022/03/20 06:04:56;;;;;;;18.20;11.57;;;6.40;77.60;;;;;;6130162;23;20404;-85
2022/03/20 06:07:21;;;;;;;18.50;10.80;;;6.40;77.70;;;;;;6155692;23;20001;-85
2022/03/20 06:09:47;;;;;;;19.00;11.00;;;6.40;77.50;;;;;;6080750;23;20037;-85
2022/03/20 06:12:13;;;;;;;16.48;10.68;;;6.40;77.20;;;;;;6129998;23;20017;-85
2022/03/20 06:14:38;;;;;;;18.33;11.15;;;6.30;77.00;;;;;;6129502;23;20112;-85
2022/03/20 06:17:05;;;;;;;21.90;11.38;;;6.30;76.70;;;;;;6105430;23;20009;-85
2022/03/20 06:19:33;;;;;;;21.17;11.68;;;6.30;76.40;;;;;;6129072;23;20010;-86
2022/03/20 06:21:59;;;;;;;18.40;11.60;;;6.30;76.60;;;;;;6105427;23;20321;-85
2022/03/20 06:24:24;;;;;;;18.65;10.90;;;6.30;76.40;;;;;;6153976;23;20009;-85
2022/03/20 06:26:50;;;;;;;18.63;10.88;;;6.30;76.50;;;;;;6105051;23;20357;-85
2022/03/20 06:29:16;;;;;;;18.85;10.73;;;6.30;76.60;;;;;;6154073;23;20009;-85
2022/03/20 06:31:42;;;;;;;18.90;10.82;;;6.30;76.30;;;;;;6104797;23;20009;-85
2022/03/20 06:34:08;;;;;;;20.08;11.48;;;6.30;75.90;;;;;;6155527;23;20006;-84
2022/03/20 06:36:34;;;;;;;18.13;10.43;;;6.30;76.10;;;;;;6104768;23;20010;-83
2022/03/20 06:38:59;;;;;;;18.90;11.30;;;6.30;76.00;;;;;;6155733;23;20052;-85
2022/03/20 06:41:25;;;;;;;19.50;10.80;;;6.30;76.20;;;;;;6129480;23;20013;-85
2022/03/20 06:43:50;;;;;;;17.77;11.13;;;6.30;76.20;;;;;;6155402;23;20068;-85
2022/03/20 06:46:16;;;;;;;16.30;11.38;;;6.30;76.60;;;;;;6153984;23;20365;-85
2022/03/20 06:48:42;;;;;;;19.25;10.77;;;6.30;76.50;;;;;;6129268;23;20428;-84
2022/03/20 06:51:08;;;;;;;18.50;11.27;;;6.30;76.50;;;;;;6129784;23;20014;-85
2022/03/20 06:53:34;;;;;;;21.95;12.77;;;6.30;76.30;;;;;;6153772;23;20084;-86
2022/03/20 06:56:00;;;;;;;17.02;11.02;;;6.30;76.60;;;;;;6105397;23;20328;-85
2022/03/20 06:58:28;;;;;;;20.33;11.73;;;6.30;76.10;;;;;;6129807;23;20010;-85
2022/03/20 07:00:54;;;;;;;18.20;11.52;;;6.30;75.80;;;;;;6129924;23;20101;-85
2022/03/20 07:03:20;;;;;;;19.98;11.60;;;6.30;75.70;;;;;;6132315;23;20033;-84
2022/03/20 07:05:46;;;;;;;21.05;11.77;;;6.30;75.90;;;;;;6138835;23;20028;-84
2022/03/20 07:08:12;;;;;;;19.85;10.73;;;6.30;75.70;;;;;;6144460;23;20065;-84
2022/03/20 07:10:38;;;;;;;18.20;11.85;;;6.30;75.70;;;;;;6135127;23;20453;-85
2022/03/20 07:15:52;;;;;;;20.58;12.32;;;6.40;75.90;;;;;;6139774;23;20020;-85
2022/03/20 07:18:20;;;;;;;17.65;11.02;;;6.40;75.70;;;;;;6132000;23;20013;-85
2022/03/20 07:20:47;;;;;;;20.45;11.73;;;6.40;75.30;;;;;;6129690;23;20002;-85
2022/03/20 07:23:13;;;;;;;20.50;11.65;;;6.40;75.20;;;;;;6104987;23;20014;-85
2022/03/20 07:31:10;;;;;;;18.90;11.82;;;6.40;74.00;;;;;;6155499;23;20016;-84
2022/03/20 07:33:36;;;;;;;18.70;12.40;;;6.40;73.60;;;;;;6080975;23;20002;-85
2022/03/20 07:36:02;;;;;;;17.65;11.88;;;6.50;73.70;;;;;;6129086;23;20092;-85
2022/03/20 07:38:28;;;;;;;18.20;11.70;;;6.50;73.60;;;;;;6131060;23;19997;-85
2022/03/20 07:40:54;;;;;;;20.77;11.55;;;6.50;73.50;;;;;;6106204;23;20005;-84
2022/03/20 07:43:20;;;;;;;18.38;12.30;;;6.50;73.60;;;;;;6106680;23;20350;-86
2022/03/20 07:45:46;;;;;;;17.65;11.25;;;6.60;73.30;;;;;;6105586;23;20435;-85
2022/03/20 07:48:12;;;;;;;17.45;11.80;;;6.60;73.40;;;;;;6131374;23;20053;-85
2022/03/20 07:50:38;;;;;;;20.58;12.05;;;6.70;73.00;;;;;;6106479;23;20009;-85
2022/03/20 07:53:04;;;;;;;22.27;13.07;;;6.70;72.80;;;;;;6130437;23;20092;-85
2022/03/20 07:55:30;;;;;;;20.08;12.65;;;6.70;72.90;;;;;;6130688;23;20002;-84
2022/03/20 07:57:57;;;;;;;20.05;12.02;;;6.70;72.10;;;;;;6130829;23;20005;-85
2022/03/20 08:00:24;;;;;;;19.88;12.52;;;6.70;72.30;;;;;;6106368;23;20013;-84
2022/03/20 08:02:51;;;;;;;21.50;13.23;;;6.70;72.30;;;;;;6106234;23;20018;-85
2022/03/20 08:05:17;;;;;;;21.05;13.02;;;6.70;72.10;;;;;;6131344;23;20126;-84
2022/03/20 08:07:43;;;;;;;20.95;12.85;;;6.70;72.00;;;;;;6130808;23;20397;-85
2022/03/20 08:10:11;;;;;;;20.05;12.35;;;6.70;71.90;;;;;;6130506;23;20040;-84
2022/03/20 08:12:37;;;;;;;20.15;12.40;;;6.70;70.60;;;;;;6130932;23;20038;-85
2022/03/20 08:15:04;;;;;;;22.42;13.13;;;6.80;70.40;;;;;;6130486;23;20028;-85
2022/03/20 08:17:30;;;;;;;20.58;13.23;;;6.70;70.50;;;;;;6156910;23;20081;-85
2022/03/20 08:20:02;;;;;;;22.85;12.55;;;6.70;70.50;;;;;;6130265;23;20037;-85
2022/03/20 08:22:27;;;;;;;23.27;12.90;;;6.70;70.40;;;;;;6129742;23;20017;-84
2022/03/20 08:24:53;;;;;;;24.13;13.32;;;6.80;70.20;;;;;;6105966;23;20010;-85
2022/03/20 08:27:20;;;;;;;20.67;12.50;;;6.80;70.80;;;;;;6130584;23;20060;-85
2022/03/20 08:29:47;;;;;;;21.60;13.15;;;6.80;69.70;;;;;;6130194;23;20006;-86
2022/03/20 08:32:13;;;;;;;19.55;13.38;;;6.80;69.00;;;;;;6130882;23;20013;-85
2022/03/20 08:34:38;;;;;;;20.58;12.43;;;6.80;68.50;;;;;;6130707;23;20081;-84
2022/03/20 08:37:04;;;;;;;21.63;13.30;;;6.90;68.50;;;;;;6106059;23;20013;-85
2022/03/20 08:39:30;;;;;;;21.77;12.95;;;6.90;68.60;;;;;;6130307;23;20377;-85
2022/03/20 08:41:56;;;;;;;24.67;13.32;;;6.90;68.30;;;;;;6156502;23;20013;-85
2022/03/20 08:44:26;;;;;;;23.80;13.65;;;7.00;67.90;;;;;;6130501;23;20009;-86
2022/03/20 08:46:52;;;;;;;21.83;12.57;;;7.00;66.50;;;;;;6106682;23;20010;-83
2022/03/20 08:49:17;;;;;;;19.55;12.27;;;7.00;65.90;;;;;;6155905;23;20421;-84
2022/03/20 08:51:43;;;;;;;21.77;14.07;;;7.10;65.90;;;;;;6130597;23;20060;-84
2022/03/20 08:54:11;;;;;;;24.05;14.00;;;7.10;66.20;;;;;;6105786;23;20468;-84
2022/03/20 08:56:37;;;;;;;24.20;14.70;;;7.10;66.00;;;;;;6130244;23;20012;-84
2022/03/20 08:59:03;;;;;;;19.40;13.07;;;7.10;65.30;;;;;;6130021;23;20294;-84
2022/03/20 09:01:29;;;;;;;22.23;13.73;;;7.20;65.30;;;;;;6105264;23;20092;-84
2022/03/20 09:03:55;;;;;;;19.52;12.65;;;7.20;65.10;;;;;;6106217;23;20015;-84
2022/03/20 09:06:21;;;;;;;21.98;13.73;;;7.20;65.50;;;;;;6130554;23;20421;-84
2022/03/20 09:08:48;;;;;;;20.92;13.40;;;7.30;65.30;;;;;;6130333;23;20013;-84
2022/03/20 09:11:14;;;;;;;24.73;14.57;;;7.30;65.10;;;;;;6129414;23;20021;-84
2022/03/20 09:13:39;;;;;;;21.30;14.07;;;7.30;65.00;;;;;;6130246;23;20013;-85
2022/03/20 09:18:59;;;;;;;23.40;13.77;;;7.30;65.50;;;;;;6136383;23;20073;-87
2022/03/20 09:21:30;;;;;;;22.98;14.57;;;7.40;65.70;;;;;;6136678;23;20010;-84
2022/03/20 09:23:56;;;;;;;22.30;14.65;;;7.50;65.10;;;;;;6141470;23;20073;-85
2022/03/20 09:26:22;;;;;;;22.60;14.32;;;7.50;64.50;;;;;;6167254;23;20027;-85
2022/03/20 09:28:48;;;;;;;23.88;14.43;;;7.50;64.30;;;;;;6090860;23;20483;-84
2022/03/20 09:31:15;;;;;;;22.63;14.15;;;7.60;64.40;;;;;;6112595;23;20009;-86
2022/03/20 09:33:41;;;;;;;22.90;13.85;;;7.60;65.00;;;;;;6136135;23;20008;-85
2022/03/20 09:36:07;;;;;;;23.98;14.82;;;7.70;64.50;;;;;;6131362;23;20396;-84
2022/03/20 09:38:34;;;;;;;22.50;13.73;;;7.70;64.50;;;;;;6129391;23;20013;-84
2022/03/20 09:41:03;;;;;;;22.50;14.35;;;7.80;64.90;;;;;;6079713;23;20013;-84
2022/03/20 09:43:31;;;;;;;21.40;14.50;;;7.80;65.20;;;;;;6129328;23;20329;-83
2022/03/20 09:45:57;;;;;;;24.23;15.23;;;7.90;65.10;;;;;;6105552;23;20010;-84
2022/03/20 09:48:23;;;;;;;22.70;13.95;;;8.00;65.00;;;;;;6105403;23;20207;-83
2022/03/20 09:50:49;;;;;;;25.73;14.75;;;8.10;65.40;;;;;;6155924;23;20005;-83
2022/03/20 09:53:15;;;;;;;27.00;14.95;;;8.20;65.50;;;;;;6129478;23;20005;-83
2022/03/20 09:55:42;;;;;;;23.88;15.23;;;8.40;65.30;;;;;;6105319;23;20009;-84
2022/03/20 09:58:08;;;;;;;24.77;14.80;;;8.50;64.60;;;;;;6105897;23;20008;-84
2022/03/20 10:00:34;;;;;;;24.70;14.70;;;8.60;63.50;;;;;;6105216;23;20006;-84
2022/03/20 10:03:14;;;;;;;23.38;15.00;;;8.70;63.40;;;;;;6081472;23;20385;-84
2022/03/20 10:05:40;;;;;;;23.90;15.90;;;8.80;62.80;;;;;;6155808;23;20002;-83
2022/03/20 10:08:16;;;;;;;28.55;15.55;;;8.90;61.40;;;;;;6129766;23;20381;-83
2022/03/20 10:10:43;;;;;;;24.10;15.38;;;8.90;60.60;;;;;;6138700;23;20013;-84
2022/03/20 10:13:13;;;;;;;25.60;15.70;;;9.00;60.70;;;;;;6105189;23;20100;-84
2022/03/20 10:15:41;;;;;;;24.85;15.70;;;9.00;61.30;;;;;;6156095;23;20008;-84
2022/03/20 10:18:15;;;;;;;25.02;15.82;;;9.10;60.80;;;;;;6129399;23;20049;-84
2022/03/20 10:20:49;;;;;;;24.40;16.10;;;9.20;61.10;;;;;;6129707;23;20009;-87
2022/03/20 10:23:36;;;;;;;24.00;15.30;;;9.30;60.20;;;;;;6155544;23;20487;-84
2022/03/20 10:26:06;;;;;;;25.98;16.17;;;9.40;60.60;;;;;;6129576;23;20006;-84
2022/03/20 10:28:46;;;;;;;25.67;15.60;;;9.40;60.70;;;;;;6130538;23;19997;-83
2022/03/20 10:31:23;;;;;;;25.17;15.68;;;9.50;60.40;;;;;;6158051;23;20069;-83
2022/03/20 10:34:09;;;;;;;25.55;16.77;;;9.50;59.80;;;;;;6139168;23;20010;-83
2022/03/20 10:36:36;;;;;;;24.58;16.13;;;9.60;59.90;;;;;;6160175;23;20005;-84
2022/03/20 10:39:08;;;;;;;23.98;16.52;;;9.70;58.70;;;;;;6156350;23;20041;-85
2022/03/20 10:41:34;;;;;;;26.20;16.55;;;9.70;58.70;;;;;;6141136;23;20013;-83
2022/03/20 10:44:01;;;;;;;27.73;17.02;;;9.80;59.90;;;;;;6162296;23;20002;-85
2022/03/20 10:46:32;;;;;;;26.88;17.10;;;9.80;58.60;;;;;;6129690;23;20021;-84
2022/03/20 10:49:02;;;;;;;27.42;17.13;;;9.90;59.00;;;;;;6129558;23;19998;-84
2022/03/20 10:51:39;;;;;;;25.17;16.50;;;9.90;58.60;;;;;;6129410;23;20005;-85
2022/03/20 10:54:20;;;;;;;28.02;17.63;;;9.90;58.50;;;;;;6129223;23;20025;-84
2022/03/20 10:56:59;;;;;;;26.73;16.63;;;9.90;58.50;;;;;;6106247;23;20089;-83
2022/03/20 10:59:26;;;;;;;26.92;18.05;;;9.90;59.00;;;;;;6129331;23;20072;-84
2022/03/20 11:01:52;;;;;;;29.23;18.10;;;9.80;58.80;;;;;;6105099;23;20332;-83
2022/03/20 11:04:21;;;;;;;24.75;16.90;;;9.80;58.40;;;;;;6104975;23;20002;-83
2022/03/20 11:06:51;;;;;;;28.25;17.23;;;9.80;58.80;;;;;;6155707;23;20419;-84
2022/03/20 11:09:17;;;;;;;24.33;16.83;;;9.80;58.90;;;;;;6155464;23;20002;-84
2022/03/20 11:11:51;;;;;;;24.88;17.73;;;9.80;59.20;;;;;;6129230;23;20111;-84
2022/03/20 11:14:25;;;;;;;26.23;17.65;;;9.70;58.80;;;;;;6157420;23;20025;-85
2022/03/20 11:16:56;;;;;;;24.52;17.05;;;9.80;58.90;;;;;;6107669;23;20081;-83
2022/03/20 11:19:28;;;;;;;27.25;16.40;;;9.80;59.10;;;;;;6157207;23;20402;-83
2022/03/20 11:22:01;;;;;;;26.50;17.90;;;9.80;59.70;;;;;;6131214;23;20148;-84
2022/03/20 11:24:27;;;;;;;26.40;17.73;;;9.80;59.30;;;;;;6132614;23;20001;-84
2022/03/20 11:26:57;;;;;;;27.13;17.42;;;9.80;59.40;;;;;;6157502;23;20323;-84
2022/03/20 11:29:26;;;;;;;26.23;17.33;;;9.90;59.20;;;;;;6131483;23;20009;-84
2022/03/20 11:31:53;;;;;;;26.77;18.08;;;9.90;59.20;;;;;;6131553;23;20060;-83
2022/03/20 11:34:19;;;;;;;26.05;16.58;;;9.90;59.70;;;;;;6129711;23;20020;-84
2022/03/20 11:37:01;;;;;;;27.90;18.52;;;10.00;59.80;;;;;;6129591;23;20331;-84
2022/03/20 11:39:27;;;;;;;25.30;17.95;;;10.00;59.90;;;;;;6129774;23;20010;-83
2022/03/20 11:42:21;;;;;;;27.92;18.23;;;9.90;60.50;;;;;;6130988;23;20427;-84
2022/03/20 11:45:01;;;;;;;24.58;18.08;;;9.90;60.00;;;;;;6130936;23;20040;-83
2022/03/20 11:47:30;;;;;;;28.90;18.65;;;9.90;60.80;;;;;;6157279;23;20049;-83
2022/03/20 11:50:15;;;;;;;27.75;18.52;;;9.80;61.10;;;;;;6112506;23;20017;-83
2022/03/20 11:53:02;;;;;;;25.55;18.48;;;9.90;61.90;;;;;;6134926;23;20044;-84
2022/03/20 11:55:38;;;;;;;29.77;19.40;;;9.90;62.70;;;;;;6131418;23;20104;-83
2022/03/20 11:58:22;;;;;;;26.10;18.90;;;9.90;61.90;;;;;;6157542;23;20002;-83
2022/03/20 12:01:03;;;;;;;28.58;20.00;;;9.90;61.80;;;;;;6130969;23;20012;-83
2022/03/20 12:03:55;;;;;;;29.40;19.23;;;9.90;61.30;;;;;;6130964;23;20009;-83
2022/03/20 12:06:42;;;;;;;26.17;18.08;;;9.90;62.40;;;;;;6156730;23;20041;-83
2022/03/20 12:09:27;;;;;;;30.63;19.73;;;9.90;62.60;;;;;;6156561;23;20328;-85
2022/03/20 12:12:11;;;;;;;27.58;17.67;;;9.90;61.90;;;;;;6152150;23;20072;-84
2022/03/20 12:14:38;;;;;;;27.45;18.65;;;9.90;61.90;;;;;;6160151;23;20389;-83
2022/03/20 12:17:04;;;;;;;30.08;20.60;;;9.90;60.40;;;;;;6186771;23;20009;-83
2022/03/20 12:19:44;;;;;;;28.85;18.67;;;10.00;61.10;;;;;;6110739;23;20012;-83
2022/03/20 12:22:16;;;;;;;29.33;18.50;;;10.00;60.90;;;;;;6159850;23;20064;-84
2022/03/20 12:24:47;;;;;;;30.98;19.52;;;10.10;60.40;;;;;;6160085;23;20001;-84
2022/03/20 12:27:24;;;;;;;25.95;18.25;;;10.20;60.40;;;;;;6159823;23;20001;-84
2022/03/20 12:29:54;;;;;;;29.63;20.45;;;10.10;59.00;;;;;;6186333;23;20001;-83
2022/03/20 12:32:21;;;;;;;25.33;18.23;;;10.20;59.50;;;;;;6158420;23;20040;-84
2022/03/20 12:34:57;;;;;;;28.73;19.27;;;10.20;59.60;;;;;;6135027;23;20015;-86
2022/03/20 12:37:33;;;;;;;32.92;19.05;;;10.20;59.40;;;;;;6185819;23;20004;-85
2022/03/20 12:40:13;;;;;;;28.75;19.33;;;10.30;59.90;;;;;;6160130;23;20328;-84
2022/03/20 12:42:43;;;;;;;26.95;19.05;;;10.30;58.90;;;;;;6158652;23;20020;-85
2022/03/20 12:45:16;;;;;;;25.60;17.55;;;10.30;59.40;;;;;;6186451;23;20415;-84
2022/03/20 12:47:52;;;;;;;27.88;18.67;;;10.40;59.90;;;;;;6160497;23;20423;-84
2022/03/20 12:50:23;;;;;;;28.13;18.15;;;10.50;60.50;;;;;;6159857;23;20001;-84
2022/03/20 12:53:01;;;;;;;28.42;18.58;;;10.50;60.10;;;;;;6160060;23;20336;-84
2022/03/20 12:55:27;;;;;;;28.73;17.85;;;10.50;60.00;;;;;;6159875;23;20025;-85
2022/03/20 12:57:53;;;;;;;25.88;17.85;;;10.60;60.60;;;;;;6160512;23;20014;-84
2022/03/20 13:00:21;;;;;;;28.77;18.25;;;10.60;60.80;;;;;;6189056;23;20012;-85
2022/03/20 13:03:09;;;;;;;28.20;18.98;;;10.60;60.00;;;;;;6193928;23;20041;-85
2022/03/20 13:06:11;;;;;;;27.70;17.85;;;10.60;59.50;;;;;;6169852;23;20020;-85
2022/03/20 13:08:38;;;;;;;;;;;10.70;60.00;;;;;;6050217;23;20003;-85
2022/03/20 13:11:48;;;;;;;28.83;18.98;;;10.70;60.20;;;;;;6166261;23;19908;-85
2022/03/20 13:14:03;;;;;;;30.83;19.58;;;10.60;60.60;;;;;;6192461;23;20013;-85
2022/03/20 13:16:29;;;;;;;28.05;19.70;;;10.60;60.20;;;;;;6161795;23;20001;-86
2022/03/20 13:18:56;;;;;;;29.95;19.52;;;10.60;59.20;;;;;;6186625;23;20024;-86
2022/03/20 13:21:22;;;;;;;30.70;20.50;;;10.60;59.20;;;;;;6185915;23;20005;-86